createdAt,value
2022-11-23T00:01:25.703Z,51.93
2022-11-23T00:03:54.359Z,51.63
2022-11-23T00:06:22.181Z,51.62
2022-11-23T00:08:49.642Z,51.99
2022-11-23T00:11:17.302Z,52.13
2022-11-23T00:13:44.049Z,51.96
2022-11-23T00:16:16.181Z,51.68
2022-11-23T00:18:43.063Z,51.55
2022-11-23T00:21:12.894Z,52.03
2022-11-23T00:23:39.784Z,52.00
2022-11-23T00:26:06.969Z,51.98
2022-11-23T00:28:35.146Z,51.94
2022-11-23T00:31:02.210Z,51.91
2022-11-23T00:33:28.969Z,51.87
2022-11-23T00:36:02.991Z,52.06
2022-11-23T00:38:30.909Z,51.91
2022-11-23T00:41:00.859Z,51.86
2022-11-23T00:43:28.384Z,52.12
2022-11-23T00:46:13.039Z,52.09
2022-11-23T00:48:45.742Z,51.68
2022-11-23T00:51:15.483Z,51.78
2022-11-23T00:53:42.935Z,52.07
2022-11-23T00:56:11.574Z,51.89
2022-11-23T00:58:38.915Z,51.85
2022-11-23T01:01:11.878Z,52.05
2022-11-23T01:03:53.493Z,51.88
2022-11-23T01:06:23.727Z,51.87
2022-11-23T01:08:56.464Z,51.79
2022-11-23T01:11:24.645Z,51.76
2022-11-23T01:13:51.674Z,51.92
2022-11-23T01:16:27.946Z,52.12
2022-11-23T01:19:01.849Z,52.20
2022-11-23T01:21:29.942Z,52.17
2022-11-23T01:23:57.034Z,52.09
2022-11-23T01:26:24.059Z,51.94
2022-11-23T01:28:51.513Z,52.15
2022-11-23T01:31:20.940Z,52.04
2022-11-23T01:33:47.846Z,51.77
2022-11-23T01:36:17.288Z,51.91
2022-11-23T01:38:45.448Z,51.68
2022-11-23T01:41:14.713Z,51.63
2022-11-23T01:43:41.422Z,51.93
2022-11-23T01:46:09.441Z,51.68
2022-11-23T01:48:51.247Z,52.17
2022-11-23T01:51:21.137Z,51.96
2022-11-23T01:53:49.266Z,51.83
2022-11-23T01:56:20.199Z,51.67
2022-11-23T01:58:50.258Z,51.65
2022-11-23T02:01:17.181Z,51.87
2022-11-23T02:03:44.719Z,51.98
2022-11-23T02:06:17.443Z,51.73
2022-11-23T02:08:44.522Z,51.73
2022-11-23T02:11:13.306Z,51.55
2022-11-23T02:13:41.749Z,51.63
2022-11-23T02:16:08.610Z,51.50
2022-11-23T02:18:36.092Z,51.55
2022-11-23T02:21:04.993Z,51.83
2022-11-23T02:23:45.981Z,51.55
2022-11-23T02:26:27.158Z,51.46
2022-11-23T02:29:07.812Z,51.54
2022-11-23T02:31:34.517Z,51.32
2022-11-23T02:34:01.189Z,51.03
2022-11-23T02:36:36.165Z,51.23
2022-11-23T02:39:16.147Z,51.48
2022-11-23T02:41:51.213Z,51.08
2022-11-23T02:44:44.365Z,51.39
2022-11-23T02:47:13.010Z,51.34
2022-11-23T02:49:41.178Z,51.20
2022-11-23T02:52:09.396Z,51.28
2022-11-23T02:54:36.098Z,51.11
2022-11-23T02:57:03.662Z,51.26
2022-11-23T02:59:32.625Z,51.23
2022-11-23T03:02:01.580Z,51.03
2022-11-23T03:04:30.229Z,51.33
2022-11-23T03:06:57.289Z,51.06
2022-11-23T03:09:26.225Z,50.85
2022-11-23T03:11:53.838Z,50.80
2022-11-23T03:14:21.101Z,51.07
2022-11-23T03:16:53.069Z,50.92
2022-11-23T03:19:20.438Z,50.79
2022-11-23T03:21:48.574Z,50.98
2022-11-23T03:24:16.334Z,50.40
2022-11-23T03:26:44.627Z,50.84
2022-11-23T03:29:17.434Z,50.72
2022-11-23T03:31:44.176Z,50.68
2022-11-23T03:34:14.143Z,50.62
2022-11-23T03:36:40.962Z,50.54
2022-11-23T03:39:08.589Z,50.25
2022-11-23T03:41:50.698Z,50.26
2022-11-23T03:44:19.542Z,50.49
2022-11-23T03:46:46.269Z,50.42
2022-11-23T03:49:13.014Z,50.21
2022-11-23T03:51:39.816Z,50.23
2022-11-23T03:54:07.951Z,50.10
2022-11-23T03:56:34.713Z,50.47
2022-11-23T03:59:01.548Z,50.41
2022-11-23T04:01:28.868Z,50.47
2022-11-23T04:04:01.222Z,50.42
2022-11-23T04:06:54.506Z,50.25
2022-11-23T04:09:25.760Z,50.15
2022-11-23T04:12:12.709Z,50.10
2022-11-23T04:14:40.153Z,49.92
2022-11-23T04:17:06.918Z,50.27
2022-11-23T04:19:33.914Z,49.96
2022-11-23T04:22:07.347Z,50.08
2022-11-23T04:24:40.065Z,49.98
2022-11-23T04:27:08.322Z,49.94
2022-11-23T04:29:35.137Z,50.26
2022-11-23T04:32:02.090Z,50.22
2022-11-23T04:34:28.958Z,50.04
2022-11-23T04:36:55.843Z,50.23
2022-11-23T04:39:30.029Z,50.02
2022-11-23T04:42:19.045Z,49.65
2022-11-23T04:44:51.478Z,50.01
2022-11-23T04:47:19.072Z,49.96
2022-11-23T04:49:47.649Z,50.07
2022-11-23T04:52:15.119Z,49.91
2022-11-23T04:54:46.065Z,50.07
2022-11-23T04:57:13.161Z,49.72
2022-11-23T04:59:40.463Z,49.69
2022-11-23T05:02:08.759Z,50.16
2022-11-23T05:04:46.405Z,50.15
2022-11-23T05:07:15.561Z,50.02
2022-11-23T05:09:45.738Z,49.88
2022-11-23T05:12:16.142Z,49.64
2022-11-23T05:14:43.385Z,49.88
2022-11-23T05:17:11.991Z,49.73
2022-11-23T05:19:40.841Z,49.68
2022-11-23T05:22:08.251Z,49.80
2022-11-23T05:24:37.063Z,49.45
2022-11-23T05:27:08.604Z,49.58
2022-11-23T05:29:35.480Z,49.53
2022-11-23T05:32:04.515Z,49.73
2022-11-23T05:34:31.714Z,49.36
2022-11-23T05:36:59.264Z,49.69
2022-11-23T05:39:26.558Z,49.45
2022-11-23T05:41:54.433Z,49.31
2022-11-23T05:44:32.443Z,49.16
2022-11-23T05:46:59.955Z,49.31
2022-11-23T05:49:30.121Z,49.23
2022-11-23T05:51:58.054Z,49.19
2022-11-23T05:54:26.004Z,49.43
2022-11-23T05:57:01.150Z,49.30
2022-11-23T05:59:37.022Z,49.44
2022-11-23T06:02:04.243Z,49.00
2022-11-23T06:04:34.558Z,48.90
2022-11-23T06:07:02.104Z,48.94
2022-11-23T06:09:47.125Z,49.25
2022-11-23T06:12:14.007Z,49.30
2022-11-23T06:14:40.739Z,49.13
2022-11-23T06:17:07.607Z,49.25
2022-11-23T06:19:46.934Z,48.94
2022-11-23T06:22:15.948Z,48.98
2022-11-23T06:24:58.779Z,49.18
2022-11-23T06:27:36.503Z,48.82
2022-11-23T06:30:09.321Z,48.25
2022-11-23T06:32:37.363Z,48.18
2022-11-23T06:35:04.277Z,48.09
2022-11-23T06:37:34.896Z,48.07
2022-11-23T06:40:01.748Z,48.41
2022-11-23T06:42:38.857Z,48.37
2022-11-23T06:45:10.393Z,48.39
2022-11-23T06:47:37.912Z,48.49
2022-11-23T06:50:05.616Z,48.90
2022-11-23T06:52:32.685Z,48.95
2022-11-23T06:54:59.368Z,49.04
2022-11-23T06:57:26.302Z,49.29
2022-11-23T06:59:54.508Z,49.72
2022-11-23T07:02:27.255Z,49.87
2022-11-23T07:04:57.157Z,49.78
2022-11-23T07:07:25.241Z,49.79
2022-11-23T07:10:06.644Z,50.05
2022-11-23T07:12:44.834Z,49.97
2022-11-23T07:15:19.632Z,49.96
2022-11-23T07:17:48.098Z,50.22
2022-11-23T07:20:15.309Z,50.21
2022-11-23T07:22:42.354Z,50.02
2022-11-23T07:25:09.728Z,50.35
2022-11-23T07:27:37.123Z,50.49
2022-11-23T07:30:05.204Z,50.58
2022-11-23T07:32:35.685Z,50.33
2022-11-23T07:35:04.366Z,50.76
2022-11-23T07:37:34.040Z,50.51
2022-11-23T07:40:01.292Z,50.73
2022-11-23T07:42:44.430Z,50.84
2022-11-23T07:45:24.665Z,50.92
2022-11-23T07:48:06.254Z,50.90
2022-11-23T07:50:37.163Z,50.99
2022-11-23T07:53:10.131Z,51.02
2022-11-23T07:55:39.492Z,51.05
2022-11-23T07:58:09.540Z,51.08
2022-11-23T08:00:40.570Z,51.19
2022-11-23T08:03:27.647Z,51.18
2022-11-23T08:06:10.227Z,50.84
2022-11-23T08:08:40.565Z,51.04
2022-11-23T08:11:09.626Z,50.70
2022-11-23T08:13:41.945Z,51.18
2022-11-23T08:16:13.757Z,50.83
2022-11-23T08:18:44.629Z,51.08
2022-11-23T08:21:14.022Z,50.97
2022-11-23T08:23:47.136Z,50.88
2022-11-23T08:26:14.449Z,51.33
2022-11-23T08:28:44.283Z,51.41
2022-11-23T08:31:20.389Z,51.00
2022-11-23T08:33:57.624Z,51.09
2022-11-23T08:36:27.644Z,51.13
2022-11-23T08:38:59.084Z,51.36
2022-11-23T08:41:30.748Z,51.33
2022-11-23T08:43:58.538Z,51.29
2022-11-23T08:46:25.253Z,51.38
2022-11-23T08:48:52.025Z,52.05
2022-11-23T08:51:22.690Z,51.72
2022-11-23T08:53:49.773Z,51.38
2022-11-23T08:56:16.785Z,51.44
2022-11-23T08:58:43.793Z,52.10
2022-11-23T09:01:15.096Z,52.50
2022-11-23T09:03:42.391Z,52.43
2022-11-23T09:06:09.122Z,52.19
2022-11-23T09:08:36.822Z,51.96
2022-11-23T09:11:05.638Z,52.39
2022-11-23T09:13:33.047Z,52.34
2022-11-23T09:16:00.478Z,52.63
2022-11-23T09:18:28.218Z,52.35
2022-11-23T09:20:54.884Z,52.38
2022-11-23T09:23:21.692Z,52.54
2022-11-23T09:25:50.114Z,52.24
2022-11-23T09:28:19.572Z,52.76
2022-11-23T09:30:47.693Z,52.51
2022-11-23T09:33:14.559Z,52.54
2022-11-23T09:35:44.001Z,52.65
2022-11-23T09:38:11.312Z,52.50
2022-11-23T09:40:39.924Z,52.27
2022-11-23T09:43:35.615Z,52.77
2022-11-23T09:46:13.709Z,52.74
2022-11-23T09:48:59.252Z,52.92
2022-11-23T09:51:26.558Z,53.10
2022-11-23T09:53:57.045Z,53.08
2022-11-23T09:56:27.826Z,52.71
2022-11-23T09:58:57.379Z,53.09
2022-11-23T10:01:25.110Z,53.03
2022-11-23T10:03:51.958Z,53.12
2022-11-23T10:06:18.625Z,53.18
2022-11-23T10:09:19.664Z,53.30
2022-11-23T10:12:10.938Z,53.22
2022-11-23T10:14:45.924Z,53.29
2022-11-23T10:17:56.674Z,53.76
2022-11-23T10:20:42.149Z,53.50
2022-11-23T10:23:35.391Z,53.33
2022-11-23T10:26:02.874Z,53.34
2022-11-23T10:28:31.471Z,53.61
2022-11-23T10:31:14.627Z,53.89
2022-11-23T10:34:17.786Z,53.73
2022-11-23T10:36:46.959Z,53.72
2022-11-23T10:39:22.859Z,53.81
2022-11-23T10:41:51.259Z,53.81
2022-11-23T10:44:17.866Z,54.17
2022-11-23T10:46:45.103Z,54.02
2022-11-23T10:49:18.486Z,54.08
2022-11-23T10:52:05.677Z,54.09
2022-11-23T10:54:37.944Z,54.14
2022-11-23T10:57:31.740Z,54.19
2022-11-23T11:00:16.071Z,54.18
2022-11-23T11:02:50.874Z,54.45
2022-11-23T11:06:07.365Z,54.50
2022-11-23T11:08:21.434Z,54.23
2022-11-23T11:10:58.289Z,54.51
2022-11-23T11:13:33.839Z,54.04
2022-11-23T11:16:06.275Z,53.92
2022-11-23T11:18:36.639Z,53.87
2022-11-23T11:21:10.778Z,54.02
2022-11-23T11:23:41.367Z,53.90
2022-11-23T11:26:27.985Z,54.05
2022-11-23T11:28:56.809Z,53.72
2022-11-23T11:31:52.677Z,53.86
2022-11-23T11:34:31.634Z,53.61
2022-11-23T11:37:12.446Z,53.82
2022-11-23T11:39:46.458Z,52.89
2022-11-23T11:42:21.025Z,53.03
2022-11-23T11:44:50.466Z,52.49
2022-11-23T11:47:25.220Z,52.71
2022-11-23T11:49:52.753Z,52.27
2022-11-23T11:52:23.689Z,52.01
2022-11-23T11:55:15.800Z,51.97
2022-11-23T11:57:46.440Z,51.87
2022-11-23T12:00:14.514Z,51.79
2022-11-23T12:03:06.060Z,51.84
2022-11-23T12:05:54.000Z,52.34
2022-11-23T12:08:48.670Z,51.74
2022-11-23T12:11:15.513Z,51.88
2022-11-23T12:13:45.617Z,51.66
2022-11-23T12:16:24.969Z,51.71
2022-11-23T12:19:10.590Z,51.64
2022-11-23T12:22:22.604Z,51.72
2022-11-23T12:24:49.431Z,51.62
2022-11-23T12:27:25.896Z,51.54
2022-11-23T12:30:34.203Z,51.39
2022-11-23T12:33:42.595Z,51.21
2022-11-23T12:36:16.773Z,51.07
2022-11-23T12:39:15.546Z,51.35
2022-11-23T12:41:46.856Z,51.21
2022-11-23T12:44:19.615Z,50.86
2022-11-23T12:47:12.726Z,50.51
2022-11-23T12:49:52.087Z,50.07
2022-11-23T12:52:26.151Z,50.33
2022-11-23T12:55:19.418Z,50.36
2022-11-23T12:57:50.938Z,50.21
2022-11-23T13:00:21.207Z,50.41
2022-11-23T13:02:56.976Z,50.08
2022-11-23T13:05:31.433Z,49.36
2022-11-23T13:08:38.961Z,49.75
2022-11-23T13:11:11.535Z,49.16
2022-11-23T13:14:02.953Z,49.43
2022-11-23T13:16:57.762Z,49.40
2022-11-23T13:20:02.112Z,48.97
2022-11-23T13:22:30.667Z,49.02
2022-11-23T13:25:14.397Z,48.88
2022-11-23T13:27:44.037Z,48.91
2022-11-23T13:30:27.365Z,48.94
2022-11-23T13:33:02.962Z,48.58
2022-11-23T13:35:29.654Z,48.69
2022-11-23T13:37:56.334Z,48.79
2022-11-23T13:40:25.921Z,48.59
2022-11-23T13:42:54.426Z,48.88
2022-11-23T13:45:22.587Z,49.05
2022-11-23T13:48:19.386Z,49.26
2022-11-23T13:50:50.964Z,49.09
2022-11-23T13:53:27.951Z,49.04
2022-11-23T13:55:57.554Z,49.14
2022-11-23T13:58:24.826Z,49.39
2022-11-23T14:00:56.520Z,49.27
2022-11-23T14:03:48.519Z,49.88
2022-11-23T14:06:24.566Z,50.07
2022-11-23T14:09:05.217Z,49.89
2022-11-23T14:11:41.094Z,50.60
2022-11-23T14:14:18.316Z,50.90
2022-11-23T14:17:21.157Z,51.72
2022-11-23T14:20:11.452Z,51.93
2022-11-23T14:23:14.623Z,51.76
2022-11-23T14:25:50.148Z,51.98
2022-11-23T14:29:04.803Z,52.25
2022-11-23T14:31:34.881Z,52.27
2022-11-23T14:34:35.205Z,52.60
2022-11-23T14:37:11.797Z,52.94
2022-11-23T14:39:57.198Z,52.76
2022-11-23T14:42:26.797Z,52.99
2022-11-23T14:44:54.345Z,53.08
2022-11-23T14:47:30.060Z,53.50
2022-11-23T14:49:57.394Z,53.54
2022-11-23T14:52:28.567Z,54.30
2022-11-23T14:54:57.376Z,54.31
2022-11-23T14:57:27.618Z,54.40
2022-11-23T14:59:57.132Z,54.57
2022-11-23T15:02:42.180Z,54.28
2022-11-23T15:05:20.949Z,54.58
2022-11-23T15:07:56.197Z,54.53
2022-11-23T15:10:50.801Z,54.83
2022-11-23T15:13:23.259Z,54.70
2022-11-23T15:15:52.657Z,54.72
2022-11-23T15:18:35.343Z,54.86
2022-11-23T15:21:04.387Z,54.94
2022-11-23T15:23:36.559Z,54.89
2022-11-23T15:26:07.758Z,54.63
2022-11-23T15:28:36.984Z,54.88
2022-11-23T15:31:27.793Z,55.11
2022-11-23T15:33:57.830Z,55.27
2022-11-23T15:36:31.007Z,55.09
2022-11-23T15:38:58.433Z,55.04
2022-11-23T15:41:26.254Z,55.50
2022-11-23T15:44:00.969Z,55.88
2022-11-23T15:46:34.137Z,55.38
2022-11-23T15:49:03.037Z,55.61
2022-11-23T15:51:32.551Z,55.88
2022-11-23T15:54:01.368Z,56.05
2022-11-23T15:56:33.606Z,56.43
2022-11-23T15:59:03.140Z,56.90
2022-11-23T16:01:30.019Z,57.13
2022-11-23T16:04:04.103Z,57.47
2022-11-23T16:06:47.233Z,57.22
2022-11-23T16:09:53.386Z,57.69
2022-11-23T16:12:23.785Z,57.55
2022-11-23T16:14:50.762Z,57.76
2022-11-23T16:17:23.847Z,57.49
2022-11-23T16:19:55.417Z,57.22
2022-11-23T16:22:33.766Z,57.38
2022-11-23T16:25:05.766Z,57.13
2022-11-23T16:27:33.316Z,57.41
2022-11-23T16:30:05.131Z,57.12
2022-11-23T16:32:32.049Z,57.30
2022-11-23T16:35:15.378Z,57.03
2022-11-23T16:37:42.228Z,56.94
2022-11-23T16:40:09.471Z,57.22
2022-11-23T16:42:36.255Z,56.77
2022-11-23T16:45:04.402Z,57.04
2022-11-23T16:47:32.237Z,56.81
2022-11-23T16:49:59.023Z,56.69
2022-11-23T16:52:25.951Z,56.85
2022-11-23T16:54:52.878Z,57.04
2022-11-23T16:57:26.667Z,56.65
2022-11-23T16:59:54.303Z,56.88
2022-11-23T17:02:21.463Z,56.86
2022-11-23T17:04:48.378Z,56.66
2022-11-23T17:07:16.831Z,56.86
2022-11-23T17:09:43.788Z,56.87
2022-11-23T17:12:16.874Z,56.94
2022-11-23T17:14:47.028Z,56.84
2022-11-23T17:17:19.270Z,56.58
2022-11-23T17:19:48.598Z,56.76
2022-11-23T17:22:24.513Z,56.52
2022-11-23T17:24:54.816Z,56.41
2022-11-23T17:27:25.124Z,56.85
2022-11-23T17:29:58.363Z,56.35
2022-11-23T17:32:25.362Z,56.74
2022-11-23T17:34:52.129Z,56.22
2022-11-23T17:37:21.612Z,56.78
2022-11-23T17:39:49.169Z,56.44
2022-11-23T17:42:16.270Z,56.55
2022-11-23T17:44:43.096Z,56.62
2022-11-23T17:47:25.142Z,56.77
2022-11-23T17:49:52.034Z,56.59
2022-11-23T17:52:18.765Z,56.55
2022-11-23T17:54:45.502Z,56.31
2022-11-23T17:57:22.198Z,56.44
2022-11-23T17:59:49.114Z,56.32
2022-11-23T18:02:16.389Z,56.44
2022-11-23T18:04:43.378Z,56.50
2022-11-23T18:07:13.604Z,56.14
2022-11-23T18:09:41.303Z,56.08
2022-11-23T18:12:09.068Z,56.53
2022-11-23T18:14:36.177Z,56.06
2022-11-23T18:17:02.853Z,56.06
2022-11-23T18:19:30.040Z,56.00
2022-11-23T18:21:57.407Z,56.33
2022-11-23T18:24:24.557Z,56.35
2022-11-23T18:26:51.249Z,56.37
2022-11-23T18:29:18.099Z,56.50
2022-11-23T18:31:44.763Z,56.08
2022-11-23T18:34:11.573Z,56.14
2022-11-23T18:36:38.293Z,56.37
2022-11-23T18:39:05.213Z,56.41
2022-11-23T18:41:32.026Z,56.02
2022-11-23T18:43:58.867Z,55.94
2022-11-23T18:46:25.688Z,56.10
2022-11-23T18:48:58.957Z,56.09
2022-11-23T18:51:26.778Z,56.19
2022-11-23T18:53:55.601Z,56.17
2022-11-23T18:56:22.586Z,56.17
2022-11-23T18:58:49.576Z,56.28
2022-11-23T19:01:21.271Z,56.08
2022-11-23T19:03:50.968Z,56.08
2022-11-23T19:06:19.456Z,56.15
2022-11-23T19:08:51.313Z,55.67
2022-11-23T19:11:23.477Z,55.82
2022-11-23T19:13:52.545Z,55.66
2022-11-23T19:16:30.211Z,56.17
2022-11-23T19:19:06.269Z,55.81
2022-11-23T19:21:34.662Z,56.09
2022-11-23T19:24:01.420Z,55.59
2022-11-23T19:26:28.932Z,56.02
2022-11-23T19:28:57.645Z,55.66
2022-11-23T19:31:29.093Z,56.01
2022-11-23T19:34:05.732Z,55.74
2022-11-23T19:36:36.818Z,55.98
2022-11-23T19:39:05.257Z,55.94
2022-11-23T19:41:32.640Z,55.66
2022-11-23T19:44:01.065Z,56.04
2022-11-23T19:46:30.129Z,55.76
2022-11-23T19:48:58.433Z,55.67
2022-11-23T19:51:26.327Z,55.92
2022-11-23T19:53:54.813Z,55.77
2022-11-23T19:56:24.098Z,55.66
2022-11-23T19:58:52.502Z,55.99
2022-11-23T20:01:21.145Z,55.90
2022-11-23T20:03:50.448Z,55.62
2022-11-23T20:06:22.163Z,55.66
2022-11-23T20:09:00.943Z,56.12
2022-11-23T20:11:29.855Z,55.90
2022-11-23T20:13:57.167Z,55.57
2022-11-23T20:16:25.619Z,55.42
2022-11-23T20:18:59.363Z,56.00
2022-11-23T20:21:27.703Z,55.86
2022-11-23T20:24:02.815Z,55.61
2022-11-23T20:26:32.187Z,55.95
2022-11-23T20:28:59.541Z,55.48
2022-11-23T20:31:29.185Z,55.84
2022-11-23T20:33:56.827Z,55.81
2022-11-23T20:36:25.873Z,55.62
2022-11-23T20:38:54.180Z,55.83
2022-11-23T20:41:21.088Z,55.78
2022-11-23T20:43:49.299Z,55.79
2022-11-23T20:46:31.661Z,55.55
2022-11-23T20:49:03.778Z,55.80
2022-11-23T20:51:31.478Z,55.63
2022-11-23T20:53:58.595Z,55.34
2022-11-23T20:56:27.323Z,55.88
2022-11-23T20:58:56.125Z,55.44
2022-11-23T21:01:22.958Z,55.50
2022-11-23T21:03:51.982Z,55.64
2022-11-23T21:06:19.891Z,55.37
2022-11-23T21:08:47.567Z,55.84
2022-11-23T21:11:40.245Z,55.78
2022-11-23T21:14:17.187Z,55.43
2022-11-23T21:16:53.296Z,55.45
2022-11-23T21:19:31.118Z,55.17
2022-11-23T21:21:59.689Z,55.60
2022-11-23T21:24:27.866Z,55.28
2022-11-23T21:26:54.656Z,55.17
2022-11-23T21:29:21.450Z,55.25
2022-11-23T21:31:49.814Z,55.49
2022-11-23T21:34:23.154Z,55.44
2022-11-23T21:36:50.519Z,55.47
2022-11-23T21:39:17.592Z,55.39
2022-11-23T21:41:44.870Z,55.10
2022-11-23T21:44:11.915Z,55.40
2022-11-23T21:46:39.768Z,55.17
2022-11-23T21:49:07.277Z,55.17
2022-11-23T21:51:34.732Z,55.41
2022-11-23T21:54:06.270Z,55.06
2022-11-23T21:56:33.584Z,54.86
2022-11-23T21:59:00.341Z,55.10
2022-11-23T22:01:29.142Z,55.24
2022-11-23T22:03:58.008Z,55.28
2022-11-23T22:06:24.878Z,55.04
2022-11-23T22:08:54.879Z,55.07
2022-11-23T22:11:24.772Z,54.98
2022-11-23T22:13:56.206Z,54.85
2022-11-23T22:16:31.040Z,55.02
2022-11-23T22:18:58.315Z,55.06
2022-11-23T22:21:33.230Z,54.84
2022-11-23T22:24:00.375Z,54.93
2022-11-23T22:26:27.895Z,54.98
2022-11-23T22:28:55.775Z,54.99
2022-11-23T22:31:24.833Z,54.79
2022-11-23T22:33:54.693Z,54.69
2022-11-23T22:36:23.015Z,55.08
2022-11-23T22:39:01.989Z,54.97
2022-11-23T22:41:30.112Z,54.90
2022-11-23T22:43:57.077Z,54.29
2022-11-23T22:46:25.400Z,54.59
2022-11-23T22:48:52.835Z,54.64
2022-11-23T22:51:22.201Z,54.60
2022-11-23T22:53:53.549Z,54.83
2022-11-23T22:56:20.777Z,54.64
2022-11-23T22:58:48.170Z,54.73
2022-11-23T23:01:23.049Z,54.84
2022-11-23T23:03:53.579Z,54.38
2022-11-23T23:06:20.871Z,54.55
2022-11-23T23:08:48.239Z,54.38
2022-11-23T23:11:15.700Z,54.67
2022-11-23T23:13:42.627Z,54.51
2022-11-23T23:16:13.430Z,54.43
2022-11-23T23:18:41.147Z,54.72
2022-11-23T23:21:14.445Z,54.79
2022-11-23T23:23:52.435Z,54.63
2022-11-23T23:26:21.626Z,54.52
2022-11-23T23:28:48.310Z,54.81
2022-11-23T23:31:16.855Z,54.78
2022-11-23T23:33:44.686Z,54.69
2022-11-23T23:36:16.207Z,54.50
2022-11-23T23:38:43.674Z,54.42
2022-11-23T23:41:11.073Z,54.40
2022-11-23T23:43:38.516Z,54.60
2022-11-23T23:46:09.456Z,54.46
2022-11-23T23:48:38.225Z,54.42
2022-11-23T23:51:27.163Z,54.50
2022-11-23T23:53:53.931Z,54.38
2022-11-23T23:56:23.699Z,54.38
2022-11-23T23:58:50.965Z,54.44
